Tofino Long Beach Airport Tofino CA
ICAO: CYAZ
IATA: YAZ
Category: Medium
Scheduled Services: Yes

Elevation: 80 ft
TransAlt. 9000 ft.

Airport Communications:
VANCOUVER CNTR:132.9
PACIFIC RDO:123.25

CYAZ Zoom In..

If you have problems with the map follow the link
https://www.worldairports.se/pages/airport.php?
ICAO=CYAZ

Runways:

(A) RW 07 length 4999 ft width 150 ft
---- / hdg 71

(B) RW 11 length 4997 ft width 100 ft
---- / hdg 107

(C) RW 16 length 5000 ft width 100 ft
---- / hdg 156

(D) RW 25 length 4999 ft width 150 ft
---- / hdg 251

(E) RW 29 length 4997 ft width 100 ft
---- / hdg 287

(F) RW 34 length 5000 ft width 100 ft
---- / hdg 336

Location; CYAZ
Day. 26 / Time. 16.07 Zulu
* Altimeter: 30.00
* Temperature: 07° c. 44.6°f.
* Wind from: 160° Speed 04 kn.
Dewpoint: 07° c.
Visibility: 15 Statute Miles.
Clouds: Scattered 700 ft.
Clouds: Broken 1900 ft.
Clouds: Broken 4000 ft.

CYAZ 261607Z 16004KT 100V200 15SM SCT007 BKN019 BKN040 07/07 A3000 RMK CU4CU1SC1 SLP163


Wind From 160°
Speed 04 kn.

 
 
jpsmedia.com for Web Design worldairports.se 2019   terms of use